Latest Weather Observations for Gladstone Airport

IDQ60801

Issued at 11:35 am EST Saturday 25 October 2014 (issued every 30 minutes, with the page automatically refreshed every 10 minutes)

About weather observations | Map of weather stations | Latest weather observations for QLD | Other Formats
Station Details ID: 039326 Name: GLADSTONE AIRPORT Lat: -23.87 Lon: 151.22 Height: 16.6 m
Data from the previous 72 hours. | See also: Recent months at Gladstone Airport
Date/Time
EST
Temp
°C
App
Temp
°C
Dew
Point
Rel
Hum
%
Delta-T
°C
Wind Press
QNH
hPa
Press
MSL
hPa
Rain
since 9 am
mm
Dir
 
Spd
km/h
Gust
km/h
Spd
kts
Gust
kts
25/11:30am 25.8 23.5 14.0 48 7.0 NNE 19 22 10 12 1019.9 1019.9 0.0
25/11:00am 26.0 25.0 14.5 49 6.9 ENE 13 22 7 12 1020.5 1020.5 0.0
25/10:30am 25.3 24.1 14.1 50 6.6 E 13 19 7 10 1021.0 1021.0 0.0
25/10:00am 25.3 25.1 14.7 51 6.3 ENE 9 17 5 9 1021.6 1021.6 0.0
25/09:30am 23.8 23.8 13.6 52 5.9 NW 6 11 3 6 1021.8 1021.8 0.0
25/09:00am 23.4 23.7 14.4 57 5.3 NW 6 9 3 5 1022.0 1022.0 0.0
25/08:30am 22.9 23.0 14.5 59 5.0 NNE 7 13 4 7 1022.0 1022.0 0.0
25/08:00am 23.2 24.4 15.8 63 4.5 SW 4 9 2 5 1021.8 1021.8 0.0
25/07:30am 20.9 20.8 15.0 69 3.5 SSW 9 13 5 7 1021.7 1021.7 0.0
25/07:00am 19.4 18.4 14.6 74 2.8 SSW 13 17 7 9 1021.4 1021.4 0.0
25/06:30am 17.5 16.3 14.0 80 2.0 SSW 13 17 7 9 1021.2 1021.2 0.0
25/06:00am 16.9 16.1 14.0 83 1.6 SSW 11 15 6 8 1020.5 1020.5 0.0
25/05:30am 16.5 16.1 14.0 85 1.4 SW 9 13 5 7 1020.1 1020.1 0.0
25/05:00am 16.4 15.9 13.9 85 1.4 SSW 9 11 5 6 1019.9 1019.9 0.0
25/04:30am 16.5 16.4 14.0 85 1.4 SSW 7 11 4 6 1019.7 1019.7 0.0
25/04:00am 16.7 16.3 14.0 84 1.5 SSW 9 11 5 6 1019.7 1019.7 0.0
25/03:30am 16.8 16.3 13.9 83 1.6 SSW 9 13 5 7 1019.8 1019.8 0.0
25/03:00am 17.2 17.4 14.3 83 1.7 SW 6 11 3 6 1019.7 1019.7 0.0
25/02:30am 17.0 17.2 14.1 83 1.7 SSW 6 9 3 5 1019.8 1019.8 0.0
25/02:00am 17.5 17.4 14.0 80 2.0 SSW 7 9 4 5 1020.0 1020.0 0.0
25/01:30am 17.9 18.1 14.2 79 2.1 SSW 6 9 3 5 1020.4 1020.4 0.0
25/01:00am 18.2 19.6 14.3 78 2.2 CALM 0 0 0 0 1020.6 1020.6 0.0
25/12:30am 18.5 20.0 14.6 78 2.3 CALM 0 0 0 0 1020.9 1020.9 0.0
25/12:00am 18.8 20.3 14.7 77 2.4 S 0 0 0 0 1021.2 1021.2 0.0
 
Date/Time
EST
Temp
°C
App
Temp
°C
Dew
Point
Rel
Hum
%
Delta-T
°C
Wind Press
QNH
hPa
Press
MSL
hPa
Rain
since 9 am
mm
Dir
 
Spd
km/h
Gust
km/h
Spd
kts
Gust
kts
24/11:30pm 19.1 19.4 15.0 77 2.4 S 7 7 4 4 1021.5 1021.5 0.0
24/11:00pm 19.3 19.6 15.0 76 2.5 S 7 9 4 5 1021.8 1021.8 0.0
24/10:30pm 19.8 20.2 15.2 75 2.7 S 7 9 4 5 1022.0 1022.0 0.0
24/10:00pm 19.9 20.2 15.1 74 2.8 S 7 9 4 5 1022.0 1022.0 0.0
24/09:30pm 20.4 21.0 15.2 72 3.1 S 6 9 3 5 1021.7 1021.7 0.0
24/09:00pm 21.2 21.5 15.1 68 3.6 SE 7 11 4 6 1021.6 1021.6 0.0
24/08:30pm 21.5 21.1 15.1 67 3.8 ESE 11 15 6 8 1021.3 1021.3 0.0
24/08:00pm 21.7 21.3 15.1 66 3.9 ESE 11 17 6 9 1021.0 1021.0 0.0
24/07:30pm 21.8 21.1 15.4 67 3.8 E 13 17 7 9 1020.8 1020.8 0.0
24/07:00pm 21.9 21.2 15.5 67 3.8 E 13 17 7 9 1020.6 1020.6 0.0
24/06:30pm 22.1 20.6 15.2 65 4.1 E 17 20 9 11 1020.2 1020.2 0.0
24/06:00pm 22.3 20.7 14.9 63 4.4 E 17 22 9 12 1020.0 1020.0 0.0
24/05:30pm 22.7 20.6 14.8 61 4.7 ENE 19 24 10 13 1019.7 1019.7 0.0
24/05:00pm 23.2 20.9 14.7 58 5.0 E 20 24 11 13 1019.5 1019.5 0.0
24/04:30pm 23.9 21.2 13.4 51 6.1 NE 20 24 11 13 1019.4 1019.4 0.0
24/04:00pm 23.9 21.5 14.3 55 5.7 ENE 20 26 11 14 1019.3 1019.3 0.0
24/03:30pm 24.1 21.6 14.2 54 5.8 ENE 20 30 11 16 1019.3 1019.3 0.0
24/03:00pm 24.7 22.1 13.9 51 6.3 ENE 20 30 11 16 1019.4 1019.4 0.0
24/02:30pm 24.2 21.0 13.1 50 6.4 ENE 22 30 12 16 1019.6 1019.6 0.0
24/02:00pm 25.3 23.0 14.1 50 6.6 NE 19 28 10 15 1020.2 1020.2 0.0
24/01:30pm 25.2 22.6 13.7 49 6.8 NE 20 28 11 15 1020.4 1020.4 0.0
24/01:00pm 25.8 23.3 14.0 48 7.0 NE 20 28 11 15 1020.5 1020.5 0.0
24/12:30pm 24.9 22.0 12.8 47 7.0 NE 20 26 11 14 1020.9 1020.9 0.0
24/12:00pm 24.8 22.4 13.7 50 6.5 E 19 28 10 15 1021.0 1021.0 0.0
24/11:30am 25.2 23.0 14.3 50 6.5 NE 19 26 10 14 1021.4 1021.4 0.0
24/11:00am 25.0 23.2 14.5 52 6.2 E 17 24 9 13 1021.7 1021.7 0.0
24/10:30am 24.2 21.9 13.1 50 6.4 E 17 22 9 12 1021.7 1021.7 0.0
24/10:00am 24.6 22.7 14.1 52 6.2 ENE 17 22 9 12 1021.8 1021.8 0.0
24/09:30am 24.3 23.0 13.8 52 6.2 E 13 22 7 12 1022.0 1022.0 0.0
24/09:00am 23.7 23.1 13.6 53 5.9 SE 9 19 5 10 1022.1 1022.1 0.0
24/08:30am 23.2 22.3 13.7 55 5.5 ESE 11 17 6 9 1021.9 1021.9 0.0
24/08:00am 23.1 22.5 14.7 59 5.0 ESE 11 19 6 10 1021.7 1021.7 0.0
24/07:30am 21.2 21.9 14.6 66 3.9 SW 4 7 2 4 1021.7 1021.7 0.0
24/07:00am 19.4 19.0 14.2 72 3.0 SW 9 11 5 6 1021.4 1021.4 0.0
24/06:30am 17.4 16.5 13.7 79 2.1 SSW 11 13 6 7 1021.1 1021.1 0.0
24/06:00am 16.0 15.0 13.3 84 1.5 SW 11 17 6 9 1021.1 1021.1 0.0
24/05:30am 15.3 14.6 13.3 88 1.1 SSW 9 15 5 8 1020.7 1020.7 0.0
24/05:00am 15.5 14.1 13.5 88 1.1 SSW 13 17 7 9 1020.4 1020.4 0.0
24/04:30am 15.7 15.1 13.4 86 1.3 SSW 9 13 5 7 1020.1 1020.1 0.0
24/04:00am 15.8 15.5 13.3 85 1.4 SSW 7 11 4 6 1019.7 1019.7 0.0
24/03:30am 15.9 16.0 12.8 82 1.7 SSW 4 7 2 4 1019.6 1019.6 0.0
24/03:00am 16.4 16.0 13.1 81 1.8 S 7 11 4 6 1019.8 1019.8 0.0
24/02:30am 16.6 17.6 13.1 80 2.0 CALM 0 0 0 0 1019.8 1019.8 0.0
24/02:00am 16.9 16.6 13.4 80 2.0 SSW 7 11 4 6 1020.2 1020.2 0.0
24/01:30am 17.0 17.3 13.3 79 2.1 SSW 4 9 2 5 1020.7 1020.7 0.0
24/01:00am 17.2 17.4 13.1 77 2.3 SSW 4 7 2 4 1020.9 1020.9 0.0
24/12:30am 17.7 18.4 13.4 76 2.4 SSW 2 9 1 5 1021.3 1021.3 0.0
24/12:00am 18.4 18.4 13.7 74 2.7 S 6 7 3 4 1021.3 1021.3 0.0
 
Date/Time
EST
Temp
°C
App
Temp
°C
Dew
Point
Rel
Hum
%
Delta-T
°C
Wind Press
QNH
hPa
Press
MSL
hPa
Rain
since 9 am
mm
Dir
 
Spd
km/h
Gust
km/h
Spd
kts
Gust
kts
23/11:30pm 18.6 18.4 13.7 73 2.8 SSW 7 9 4 5 1021.4 1021.4 0.0
23/11:00pm 18.9 18.3 13.5 71 3.1 SSW 9 9 5 5 1021.5 1021.5 0.0
23/10:30pm 20.8 20.7 14.0 65 3.9 E 7 9 4 5 1021.3 1021.3 0.0
23/10:00pm 20.7 20.2 13.9 65 3.9 ENE 9 13 5 7 1021.0 1021.0 0.0
23/09:30pm 20.9 20.3 13.6 63 4.2 E 9 13 5 7 1021.2 1021.2 0.0
23/09:00pm 21.2 20.4 13.9 63 4.2 E 11 15 6 8 1021.1 1021.1 0.0
23/08:30pm 21.3 20.9 14.0 63 4.2 E 9 13 5 7 1020.8 1020.8 0.0
23/08:00pm 21.4 20.2 14.1 63 4.2 E 13 17 7 9 1020.5 1020.5 0.0
23/07:30pm 21.5 20.3 13.9 62 4.4 ENE 13 17 7 9 1020.2 1020.2 0.0
23/07:00pm 21.6 20.0 13.8 61 4.5 ENE 15 20 8 11 1019.8 1019.8 0.0
23/06:30pm 21.6 20.1 14.3 63 4.3 ENE 15 22 8 12 1019.4 1019.4 0.0
23/06:00pm 21.9 19.6 14.0 61 4.6 E 19 26 10 14 1019.0 1019.0 0.0
23/05:30pm 22.5 19.9 13.8 58 5.1 E 20 30 11 16 1018.6 1018.6 0.0
23/05:00pm 22.6 19.0 14.2 59 4.9 ENE 26 35 14 19 1018.5 1018.5 0.0
23/04:30pm 23.3 19.7 13.2 53 5.8 ENE 24 30 13 16 1018.0 1018.0 0.0
23/04:00pm 24.3 20.6 13.8 52 6.1 ENE 26 35 14 19 1017.8 1017.8 0.0
23/03:30pm 23.8 20.4 13.6 52 5.9 ENE 24 32 13 17 1017.9 1017.9 0.0
23/03:00pm 23.9 20.4 13.4 51 6.1 ENE 24 32 13 17 1017.9 1017.9 0.0
23/02:30pm 24.3 20.0 11.9 45 7.0 ENE 26 33 14 18 1018.1 1018.1 0.0
23/02:00pm 24.9 21.1 12.5 46 7.1 ENE 24 30 13 16 1018.4 1018.4 0.0
23/01:30pm 24.5 21.3 13.1 49 6.6 E 22 30 12 16 1018.8 1018.8 0.0
23/01:00pm 25.3 22.6 13.5 48 6.9 ENE 20 24 11 13 1019.0 1019.0 0.0
23/12:30pm 25.2 22.3 12.8 46 7.2 NE 20 28 11 15 1019.2 1019.2 0.0
23/12:00pm 25.1 21.4 12.7 46 7.1 NE 24 32 13 17 1019.4 1019.4 0.0
23/11:30am 25.8 23.0 12.6 44 7.6 ENE 19 28 10 15 1020.1 1020.1 0.0
23/11:00am 24.8 22.5 11.7 44 7.4 ENE 15 20 8 11 1020.5 1020.5 0.0
23/10:30am 24.5 21.1 10.4 41 7.8 NE 19 28 10 15 1020.9 1020.9 0.0
23/10:00am 24.6 21.6 10.8 42 7.7 E 17 24 9 13 1021.3 1021.3 0.0
23/09:30am 24.5 22.0 11.1 43 7.5 ESE 15 30 8 16 1021.7 1021.7 0.0
23/09:00am 23.2 20.9 10.6 45 6.9 SSE 13 24 7 13 1021.7 1021.7 0.0
23/08:30am 22.7 19.7 10.8 47 6.6 ESE 17 22 9 12 1022.0 1022.0 0.0
23/08:00am 22.1 19.4 11.8 52 5.8 ESE 17 22 9 12 1022.0 1022.0 0.0
23/07:30am 20.9 19.5 12.3 58 4.8 S 11 17 6 9 1021.9 1021.9 0.0
23/07:00am 18.9 17.6 12.4 66 3.6 SSW 11 17 6 9 1021.7 1021.7 0.0
23/06:30am 17.6 16.6 12.3 71 2.9 SW 9 13 5 7 1021.5 1021.5 0.0
23/06:00am 16.5 15.4 11.9 74 2.5 SSW 9 13 5 7 1021.5 1021.5 0.0
23/05:30am 15.9 14.8 11.9 77 2.2 SSW 9 13 5 7 1021.4 1021.4 0.0
23/05:00am 15.8 14.6 11.6 76 2.3 SSW 9 11 5 6 1021.2 1021.2 0.0
23/04:30am 16.5 15.6 11.4 72 2.8 SSW 7 11 4 6 1020.9 1020.9 0.0
23/04:00am 17.1 16.0 11.8 71 2.9 S 9 13 5 7 1020.8 1020.8 0.0
23/03:30am 17.2 16.0 11.7 70 3.0 S 9 13 5 7 1020.6 1020.6 0.0
23/03:00am 17.3 16.2 11.8 70 3.0 S 9 13 5 7 1020.6 1020.6 0.0
23/02:30am 17.6 16.5 11.8 69 3.2 S 9 11 5 6 1020.9 1020.9 0.0
23/02:00am 18.0 17.0 12.2 69 3.2 S 9 13 5 7 1021.1 1021.1 0.0
23/01:30am 18.2 17.2 12.4 69 3.2 SSW 9 13 5 7 1021.3 1021.3 0.0
23/01:00am 17.8 16.9 12.5 71 2.9 S 9 13 5 7 1021.7 1021.7 0.0
23/12:30am 18.1 17.5 12.3 69 3.2 SSW 7 9 4 5 1022.0 1022.0 0.0
23/12:00am 18.8 17.9 12.5 67 3.5 S 9 13 5 7 1022.2 1022.2 0.0
 
Date/Time
EST
Temp
°C
App
Temp
°C
Dew
Point
Rel
Hum
%
Delta-T
°C
Wind Press
QNH
hPa
Press
MSL
hPa
Rain
since 9 am
mm
Dir
 
Spd
km/h
Gust
km/h
Spd
kts
Gust
kts
22/11:30pm 19.2 18.3 12.7 66 3.7 SSE 9 13 5 7 1022.4 1022.4 0.0
22/11:00pm 20.2 18.2 12.7 62 4.2 SE 15 22 8 12 1022.4 1022.4 0.0
22/10:30pm 20.4 18.5 12.9 62 4.3 SE 15 22 8 12 1022.4 1022.4 0.0
22/10:00pm 20.7 18.3 12.7 60 4.5 SE 17 24 9 13 1022.4 1022.4 0.0
22/09:30pm 21.0 18.0 12.7 59 4.7 ESE 20 28 11 15 1022.3 1022.3 0.0
22/09:00pm 21.3 18.5 13.2 60 4.6 ESE 20 32 11 17 1022.3 1022.3 0.0
22/08:30pm 21.5 18.2 12.9 58 4.9 ESE 22 33 12 18 1021.9 1021.9 0.0
22/08:00pm 21.7 17.5 13.6 60 4.7 ESE 28 37 15 20 1021.5 1021.5 0.0
22/07:30pm 21.8 17.3 13.7 60 4.7 ESE 30 41 16 22 1021.3 1021.3 0.0
22/07:00pm 22.0 17.9 13.9 60 4.7 E 28 39 15 21 1021.1 1021.1 0.0
22/06:30pm 22.1 17.7 14.2 61 4.6 E 30 37 16 20 1020.9 1020.9 0.0
22/06:00pm 22.3 17.9 14.2 60 4.7 E 30 41 16 22 1020.5 1020.5 0.0
22/05:30pm 23.0 19.1 14.3 58 5.1 E 28 37 15 20 1020.3 1020.3 0.0
22/05:00pm 23.6 19.0 13.5 53 5.9 E 30 43 16 23 1020.0 1020.0 0.0
22/04:30pm 24.0 18.5 12.6 49 6.5 E 33 44 18 24 1019.7 1019.7 0.0
22/04:00pm 24.0 18.5 12.0 47 6.8 E 32 41 17 22 1019.5 1019.5 0.0
22/03:30pm 24.6 19.5 13.2 49 6.6 E 32 39 17 21 1019.4 1019.4 0.0
22/03:00pm 25.8 23.1 13.6 47 7.2 SE 20 33 11 18 1019.4 1019.4 0.0
22/02:30pm 26.1 22.9 11.8 41 8.2 SE 20 28 11 15 1019.6 1019.6 0.0
22/02:00pm 25.9 22.7 11.3 40 8.2 SE 19 28 10 15 1020.0 1020.0 0.0
22/01:30pm 26.2 22.9 11.5 40 8.4 ESE 20 33 11 18 1020.6 1020.6 0.0
22/01:00pm 25.5 22.1 11.3 41 8.0 ESE 20 32 11 17 1020.9 1020.9 0.0
22/12:30pm 25.3 22.2 11.5 42 7.8 SE 19 33 10 18 1021.3 1021.3 0.0
22/12:00pm 24.7 22.0 11.6 44 7.4 SE 17 28 9 15 1021.9 1021.9 0.0

Other Formats:

Comma delimited format used in spreadsheet applications
http://www.bom.gov.au/fwo/IDQ60801/IDQ60801.94381.axf

JavaScript Object Notation format (JSON) in row-major order
http://www.bom.gov.au/fwo/IDQ60801/IDQ60801.94381.json